KONL/ONL METAR and TAF weather

Enter ICAO airport designator
Station Type Date Time Source
KONL METAR 2020/07/14 21:55 UTC NOAA

KONL 142155Z AUTO 03005KT 10SM BKN040 24/13 A3003 RMK AO2 T02360134


Station Type Date Time Source
KONL Decoded METAR 2020/07/14 21:55 UTC NOAA

O'Neill / Baker Field, NE, United States (KONL) 42-28N 098-41W
Jul 14, 2020 - 05:55 PM EDT / 2020.07.14 2155 UTC
Wind: from the NNE (030 degrees) at 6 MPH (5 KT):0
Visibility: 10 mile(s):0
Sky conditions: mostly cloudy
Temperature: 74.5 F (23.6 C)
Dew Point: 56.1 F (13.4 C)
Relative Humidity: 52%
Pressure (altimeter): 30.03 in. Hg (1016 hPa)
ob: KONL 142155Z AUTO 03005KT 10SM BKN040 24/13 A3003 RMK AO2 T02360134
cycle: 22

Station Type Date Time Source
KONL TAF UTC NOAA

Error!

Example: see airport list